Bowling Green, Kentucky
Current Conditions -  °F | °C
As of 11:53 AM on Thursday 30 Oct 2014 (Local Time) from KBWG Reporting Station
Clear Clear  
Wind Chill: 56°   Ceiling: Unl
Heat Index: 56°   Visibility: 9mi
Dew Point: 37°   Wind: 6mph
Humidity: 49%   Direction: 10°N
Pressure: 30.15"   Gusts: NA
Location:  36.99°N, 86.44°W
Report Text: KBWG 301653Z AUTO 01005KT 9SM CLR 13/03 A3015 RMK AO2 SLP211 T01330028
Loading
Personal Weather Stations






























Interactive Weather Map New forecast layout! Learn more

10-Day Weather Forecast

Advertisements
Track Severe Weather on mobile